KZB weather

Zachar Bay Seaplane Base
Zachar Bay, Alaska, United States

Public forecast

Using degrees Fahrenheit for public forecast. Weather courtesy of forecast.io.

METAR (pilot weather report)

Closest report is Akhiok Airport, 39.5 nm (73.2 km) SSW. Retrieved 2019/09/22 10:56 UTC (34 minutes ago):

PAKH 221056Z AUTO 25003KT BKN041 09/07 A2972 RMK AO2 SLP065 T00940067 PWINO $

TAF (pilot weather forecast)

Closest forecast is Kodiak Airport, 41.9 nm (77.6 km) ENE. Retrieved 2019/09/22 06:24 UTC (5 hours ago):

TAF PADQ 220521Z 2206/2306 26007KT P6SM SKC TEMPO 2206/2208 26010G16KT FM222100 10012KT P6SM VCSH BKN045 FM230300 06024G34KT 4SM -RA BR OVC020